Airfield :
LOGIN :

Register | Disclaimer

   EN    FR    IT 

 










Legend :    VFR   Marginal VFR   IFR   Intensive IFR   Very Intensive IFR
Visi :
Ceiling :
>= 8 km
>= 3000ft
5 to 8 km
1000 to 3000 ft
1500m to 5 km
500 to 1000 ft
800 to 1500m
200 to 500 ft
< 800m
< 200 ft
Symbols :   Thunderstorms  Fog  Heavy snow  Heavy precipitations  Wind > 20 kt
SIGMETs :     Misc.  Thunderstorms  Icing  Turbulence  Mountain Waves  Volcanic Ashes







- Airport Elevation : 2001 ft
- IATA code : MAD


LEMD - Madrid

CURRENT METAR :
  • 182230Z 35004KT 9999 FEW075 21/14 Q1020 NOSIG

EXPIRED METARs :
  • 182200Z 00000KT 9999 FEW075 21/14 Q1020 NOSIG
  • 182130Z VRB01KT 9999 FEW050 22/15 Q1020 NOSIG
  • 182100Z VRB02KT 9999 FEW050 23/15 Q1020 NOSIG
  • 182030Z VRB02KT 9999 FEW050TCU 22/15 Q1020 NOSIG
  • 182000Z 07003KT 030V160 9999 FEW050TCU 23/14 Q1019 NOSIG

TAF TAF LEMD
Valid from the 18 at 18:00 until the 20 at 00:00 UTC


181700Z 1818/1924 VRB05KT CAVOK TX31/1915Z TN16/1906Z
TEMPO 1818/1820 FEW045TCU
PROB40
TEMPO 1818/1820 VRB15G25KT TS SHRA SCT040CB
PROB40
TEMPO 1912/1920 FEW040TCU
No reported NOTAMs for that airfield.



MET'MAP, your aeronautical weather chart ! - Copyright ORBIFLY December 2007 - Disclaimer

ORBIFLY MET'MAP TEAM :

Programming & Development : Alexandra Zaïnal
Concept & Development : Baudouin d'Aumeries
Co-Development & Prog : Marc-Olivier Méhu
Technical & hardware support : Manuel Goepfert

Contact : metmap@orbifly.com




SOURCES & CREDITS :

   NOAA